Time;durP1;ratioP1;P1;durP2;ratioP2;P2;SDS_P1;SDS_P2;PMS_P1;PMS_P2;Temp;Humidity;BMP_temperature;BMP_pressure;BME280_temperature;BME280_humidity;BME280_pressure;Samples;Min_cycle;Max_cycle;Signal;HPM_P1;HPM_P2
2021/12/20 00:00:45;;;;;;;;;;;7.30;1.00;;;;;;5032947;28;20312;-82
2021/12/20 00:03:11;;;;;;;;;;;7.30;1.00;;;;;;5052629;28;19908;-83
2021/12/20 00:05:36;;;;;;;;;;;7.30;1.00;;;;;;5051949;28;20418;-83
2021/12/20 00:08:02;;;;;;;;;;;7.30;1.00;;;;;;5043581;28;20316;-82
2021/12/20 00:10:27;;;;;;;;;;;7.30;1.00;;;;;;5048220;28;19913;-82
2021/12/20 00:12:53;;;;;;;;;;;7.30;1.00;;;;;;5053186;28;19952;-83
2021/12/20 00:15:18;;;;;;;;;;;7.30;1.00;;;;;;5056079;28;19909;-82
2021/12/20 00:17:44;;;;;;;;;;;7.30;1.00;;;;;;5056337;28;20297;-83
2021/12/20 00:20:10;;;;;;;;;;;7.20;1.00;;;;;;5056938;28;19909;-82
2021/12/20 00:22:36;;;;;;;;;;;7.20;1.00;;;;;;5056925;28;19974;-83
2021/12/20 00:25:02;;;;;;;;;;;7.20;1.00;;;;;;5052191;28;19916;-82
2021/12/20 00:27:27;;;;;;;;;;;7.20;1.00;;;;;;5056884;28;19913;-83
2021/12/20 00:29:53;;;;;;;;;;;7.20;1.00;;;;;;5052071;28;19925;-82
2021/12/20 00:32:18;;;;;;;;;;;7.20;1.00;;;;;;5055835;28;19917;-83
2021/12/20 00:34:45;;;;;;;;;;;7.20;1.00;;;;;;5046079;28;19909;-83
2021/12/20 00:42:44;;;;;;;;;;;7.30;1.00;;;;;;5049359;28;20455;-83
2021/12/20 00:45:10;;;;;;;;;;;7.30;1.00;;;;;;5055703;28;19920;-83
2021/12/20 00:47:36;;;;;;;;;;;7.30;1.00;;;;;;5056852;28;19919;-83
2021/12/20 00:50:03;;;;;;;;;;;7.30;1.00;;;;;;5055827;28;19913;-83
2021/12/20 00:52:28;;;;;;;;;;;7.30;1.00;;;;;;5056846;28;19913;-83
2021/12/20 00:54:54;;;;;;;;;;;7.40;1.00;;;;;;5055829;28;20623;-82
2021/12/20 00:57:19;;;;;;;;;;;7.40;1.00;;;;;;5056624;28;19982;-82
2021/12/20 00:59:44;;;;;;;;;;;7.40;1.00;;;;;;5051445;28;19913;-84
2021/12/20 01:02:10;;;;;;;;;;;7.40;1.00;;;;;;5054940;28;19919;-82
2021/12/20 01:04:35;;;;;;;;;;;7.40;1.00;;;;;;5053656;28;20002;-82
2021/12/20 01:07:01;;;;;;;;;;;7.40;1.00;;;;;;5056049;28;19913;-83
2021/12/20 01:09:26;;;;;;;;;;;7.40;1.00;;;;;;5051759;28;19977;-83
2021/12/20 01:11:54;;;;;;;;;;;7.40;1.00;;;;;;5056066;28;19924;-82
2021/12/20 01:14:24;;;;;;;;;;;7.40;1.00;;;;;;5052214;28;19935;-83
2021/12/20 01:16:49;;;;;;;;;;;7.40;1.00;;;;;;5044774;28;19913;-84
2021/12/20 01:19:15;;;;;;;;;;;7.50;1.00;;;;;;5055527;28;19913;-83
2021/12/20 01:21:40;;;;;;;;;;;7.50;1.00;;;;;;5052931;28;19920;-83
2021/12/20 01:24:06;;;;;;;;;;;7.50;1.00;;;;;;5059329;28;19913;-85
2021/12/20 01:26:31;;;;;;;;;;;7.50;1.00;;;;;;5059145;28;19955;-84
2021/12/20 01:28:57;;;;;;;;;;;7.50;1.00;;;;;;5060058;28;19908;-83
2021/12/20 01:31:22;;;;;;;;;;;7.50;1.00;;;;;;5072141;28;19995;-83
2021/12/20 01:33:48;;;;;;;;;;;7.40;1.00;;;;;;5054971;28;19909;-82
2021/12/20 01:36:13;;;;;;;;;;;7.40;1.00;;;;;;5050291;28;20003;-83
2021/12/20 01:38:39;;;;;;;;;;;7.40;1.00;;;;;;5052153;28;19917;-84
2021/12/20 01:41:05;;;;;;;;;;;7.40;1.00;;;;;;5049892;28;19976;-82
2021/12/20 01:43:30;;;;;;;;;;;7.40;1.00;;;;;;5054789;28;19909;-82
2021/12/20 01:45:56;;;;;;;;;;;7.40;1.00;;;;;;5056765;28;19952;-84
2021/12/20 01:48:23;;;;;;;;;;;7.30;1.00;;;;;;5056110;28;20298;-83
2021/12/20 01:53:15;;;;;;;;;;;7.20;1.00;;;;;;5050421;28;19912;-83
2021/12/20 01:55:41;;;;;;;;;;;7.20;1.00;;;;;;5053160;28;19920;-84
2021/12/20 01:58:06;;;;;;;;;;;7.20;1.00;;;;;;5055122;28;19913;-84
2021/12/20 02:00:34;;;;;;;;;;;7.20;1.00;;;;;;5049131;28;20343;-81
2021/12/20 02:03:01;;;;;;;;;;;7.20;1.00;;;;;;5055167;28;19913;-82
2021/12/20 02:05:47;;;;;;;;;;;7.20;1.00;;;;;;5055440;28;19917;-83
2021/12/20 02:10:43;;;;;;;;;;;7.20;1.00;;;;;;5052942;28;19913;-82
2021/12/20 02:13:08;;;;;;;;;;;7.10;1.00;;;;;;5055887;28;19979;-82
2021/12/20 02:15:34;;;;;;;;;;;7.10;1.00;;;;;;5054741;28;19912;-83
2021/12/20 02:17:59;;;;;;;;;;;7.20;1.00;;;;;;5054672;28;19924;-83
2021/12/20 02:20:26;;;;;;;;;;;7.10;1.00;;;;;;5048399;28;19912;-83
2021/12/20 02:22:56;;;;;;;;;;;7.10;1.00;;;;;;5057934;28;19976;-82
2021/12/20 02:25:21;;;;;;;;;;;7.10;1.00;;;;;;5046685;28;19924;-83
2021/12/20 02:27:47;;;;;;;;;;;7.10;1.00;;;;;;5047468;28;20343;-83
2021/12/20 02:30:37;;;;;;;;;;;7.10;1.00;;;;;;5054447;28;19920;-83
2021/12/20 02:38:39;;;;;;;;;;;7.10;1.00;;;;;;4995162;28;20015;-83
2021/12/20 02:41:08;;;;;;;;;;;7.10;1.00;;;;;;5054630;28;19917;-83
2021/12/20 02:43:38;;;;;;;;;;;7.20;1.00;;;;;;5046494;28;19913;-83
2021/12/20 02:46:07;;;;;;;;;;;7.20;1.00;;;;;;5052013;28;19923;-83
2021/12/20 02:48:32;;;;;;;;;;;7.20;1.00;;;;;;5053682;28;19912;-82
2021/12/20 02:50:58;;;;;;;;;;;7.20;1.00;;;;;;5053616;28;20008;-83
2021/12/20 02:53:23;;;;;;;;;;;7.30;1.00;;;;;;5053939;28;19958;-82
2021/12/20 02:55:49;;;;;;;;;;;7.30;1.00;;;;;;5054880;28;19913;-82
2021/12/20 02:58:15;;;;;;;;;;;7.30;1.00;;;;;;5053334;28;19996;-83
2021/12/20 03:00:40;;;;;;;;;;;7.30;1.00;;;;;;5049954;28;19919;-83
2021/12/20 03:03:07;;;;;;;;;;;7.30;1.00;;;;;;5051920;28;19935;-83
2021/12/20 03:05:33;;;;;;;;;;;7.30;1.00;;;;;;5046591;28;20289;-83
2021/12/20 03:07:58;;;;;;;;;;;7.20;1.00;;;;;;5052939;28;19916;-83
2021/12/20 03:10:26;;;;;;;;;;;7.20;1.00;;;;;;5052783;28;19919;-82
2021/12/20 03:12:52;;;;;;;;;;;7.20;1.00;;;;;;5053634;28;19952;-82
2021/12/20 03:15:22;;;;;;;;;;;7.20;1.00;;;;;;5049862;28;19909;-83
2021/12/20 03:17:48;;;;;;;;;;;7.20;1.00;;;;;;5038140;28;20000;-83
2021/12/20 03:20:14;;;;;;;;;;;7.20;1.00;;;;;;5053870;28;20380;-83
2021/12/20 03:22:40;;;;;;;;;;;7.30;1.00;;;;;;5040311;28;19909;-83
2021/12/20 03:25:06;;;;;;;;;;;7.30;1.00;;;;;;5051305;28;20012;-83
2021/12/20 03:27:32;;;;;;;;;;;7.30;1.00;;;;;;5053962;28;19955;-83
2021/12/20 03:29:57;;;;;;;;;;;7.30;1.00;;;;;;5049805;28;19912;-83
2021/12/20 03:32:22;;;;;;;;;;;7.30;1.00;;;;;;5055200;28;20006;-83
2021/12/20 03:34:48;;;;;;;;;;;7.40;1.00;;;;;;5043303;28;20440;-82
2021/12/20 03:37:14;;;;;;;;;;;7.40;1.00;;;;;;5059773;28;19916;-83
2021/12/20 03:39:39;;;;;;;;;;;7.40;1.00;;;;;;5053889;28;20008;-84
2021/12/20 03:42:05;;;;;;;;;;;7.40;1.00;;;;;;5054389;28;19956;-82
2021/12/20 03:44:37;;;;;;;;;;;7.40;1.00;;;;;;5054854;28;19917;-83
2021/12/20 03:47:03;;;;;;;;;;;7.40;1.00;;;;;;5056766;28;19913;-84
2021/12/20 03:49:28;;;;;;;;;;;7.40;1.00;;;;;;5056532;28;19913;-83
2021/12/20 03:51:54;;;;;;;;;;;7.40;1.00;;;;;;5044147;28;19920;-83
2021/12/20 03:54:19;;;;;;;;;;;7.40;1.00;;;;;;5057575;28;20283;-82
2021/12/20 03:56:46;;;;;;;;;;;7.40;1.00;;;;;;5058278;28;20007;-82
2021/12/20 03:59:12;;;;;;;;;;;7.40;1.00;;;;;;5057385;28;19920;-81
2021/12/20 04:01:38;;;;;;;;;;;7.30;1.00;;;;;;5056874;28;19912;-82
2021/12/20 04:04:04;;;;;;;;;;;7.40;1.00;;;;;;5057617;28;19927;-82
2021/12/20 04:06:31;;;;;;;;;;;7.40;1.00;;;;;;5059342;28;20385;-82
2021/12/20 04:08:56;;;;;;;;;;;7.30;1.00;;;;;;5051088;28;20450;-83
2021/12/20 04:11:22;;;;;;;;;;;7.30;1.00;;;;;;5058297;28;19913;-83
2021/12/20 04:13:47;;;;;;;;;;;7.30;1.00;;;;;;5055052;28;19916;-83
2021/12/20 04:16:13;;;;;;;;;;;7.30;1.00;;;;;;5057748;28;19913;-83
2021/12/20 04:18:38;;;;;;;;;;;7.30;1.00;;;;;;5057229;28;20382;-83
2021/12/20 04:21:04;;;;;;;;;;;7.30;1.00;;;;;;5049759;28;19956;-84
2021/12/20 04:23:29;;;;;;;;;;;7.30;1.00;;;;;;5055910;28;19914;-83
2021/12/20 04:25:55;;;;;;;;;;;7.30;99.90;;;;;;5052877;28;19920;-83
2021/12/20 04:28:20;;;;;;;;;;;7.20;1.00;;;;;;5056646;28;19978;-83
2021/12/20 04:30:46;;;;;;;;;;;7.30;99.90;;;;;;5055906;28;19913;-83
2021/12/20 04:33:11;;;;;;;;;;;7.30;1.00;;;;;;5057624;28;20005;-83
2021/12/20 04:35:37;;;;;;;;;;;7.30;1.00;;;;;;5055946;28;20007;-83
2021/12/20 04:38:03;;;;;;;;;;;7.30;1.00;;;;;;5056235;28;19917;-83
2021/12/20 04:40:29;;;;;;;;;;;7.30;1.00;;;;;;5042723;28;19916;-84
2021/12/20 04:42:56;;;;;;;;;;;7.30;1.00;;;;;;5043585;28;20498;-82
2021/12/20 04:45:22;;;;;;;;;;;7.30;1.00;;;;;;5056185;28;19924;-83
2021/12/20 04:47:47;;;;;;;;;;;7.30;1.00;;;;;;5057193;28;19913;-82
2021/12/20 04:50:13;;;;;;;;;;;7.30;1.00;;;;;;5056425;28;20092;-83
2021/12/20 04:52:40;;;;;;;;;;;7.30;1.00;;;;;;5051849;28;19913;-82
2021/12/20 04:55:05;;;;;;;;;;;7.30;1.00;;;;;;5051881;28;20008;-83
2021/12/20 04:57:32;;;;;;;;;;;7.20;29.50;;;;;;5056155;28;19959;-83
2021/12/20 04:59:58;;;;;;;;;;;7.30;39.30;;;;;;5054962;28;19912;-83
2021/12/20 05:02:24;;;;;;;;;;;7.30;58.00;;;;;;5052495;28;20530;-83
2021/12/20 05:04:49;;;;;;;;;;;7.30;57.00;;;;;;5057082;28;19924;-84
2021/12/20 05:07:15;;;;;;;;;;;7.30;33.40;;;;;;5038111;28;19925;-83
2021/12/20 05:09:42;;;;;;;;;;;7.30;30.00;;;;;;5045445;28;19916;-83
2021/12/20 05:12:14;;;;;;;;;;;7.30;9.70;;;;;;5057294;28;20373;-83
2021/12/20 05:14:44;;;;;;;;;;;7.30;1.00;;;;;;5073703;28;19909;-83
2021/12/20 05:17:11;;;;;;;;;;;7.30;1.00;;;;;;5073229;28;19909;-83
2021/12/20 05:19:38;;;;;;;;;;;7.30;17.90;;;;;;5058148;28;19971;-83
2021/12/20 05:22:04;;;;;;;;;;;7.30;22.00;;;;;;5057926;28;19916;-83
2021/12/20 05:24:29;;;;;;;;;;;7.30;15.00;;;;;;5054747;28;19912;-83
2021/12/20 05:26:54;;;;;;;;;;;7.30;1.00;;;;;;5058118;28;19951;-83
2021/12/20 05:29:20;;;;;;;;;;;7.30;1.00;;;;;;5058149;28;19999;-83
2021/12/20 05:31:46;;;;;;;;;;;7.30;1.00;;;;;;5056436;28;19913;-83
2021/12/20 05:34:11;;;;;;;;;;;7.30;1.00;;;;;;5055930;28;19909;-83
2021/12/20 05:36:37;;;;;;;;;;;7.30;1.00;;;;;;5057886;28;19912;-83
2021/12/20 05:39:03;;;;;;;;;;;7.30;1.00;;;;;;5058202;28;20003;-83
2021/12/20 05:41:29;;;;;;;;;;;7.20;1.00;;;;;;5057989;28;19916;-83
2021/12/20 05:43:54;;;;;;;;;;;7.20;1.00;;;;;;5052783;28;19932;-83
2021/12/20 05:46:20;;;;;;;;;;;7.20;1.00;;;;;;5057900;28;19917;-83
2021/12/20 05:48:45;;;;;;;;;;;7.20;1.00;;;;;;5048447;28;19913;-84
2021/12/20 05:51:11;;;;;;;;;;;7.20;1.00;;;;;;5053232;28;20408;-83
2021/12/20 05:53:36;;;;;;;;;;;7.20;1.00;;;;;;5039113;28;20069;-83
2021/12/20 05:56:02;;;;;;;;;;;7.20;1.00;;;;;;5054634;28;19921;-84
2021/12/20 05:58:27;;;;;;;;;;;7.20;1.00;;;;;;5043089;28;19913;-82
2021/12/20 06:03:23;;;;;;;;;;;7.20;1.00;;;;;;5072426;28;20312;-83
2021/12/20 06:05:49;;;;;;;;;;;7.30;99.90;;;;;;5068500;28;19960;-83
2021/12/20 06:08:14;;;;;;;;;;;7.20;99.90;;;;;;5036576;28;19913;-83
2021/12/20 06:10:40;;;;;;;;;;;7.20;99.90;;;;;;5034426;28;20369;-82
2021/12/20 06:13:05;;;;;;;;;;;7.20;99.90;;;;;;5051860;28;20289;-83
2021/12/20 06:15:31;;;;;;;;;;;7.20;1.00;;;;;;5053654;28;19949;-83
2021/12/20 06:17:56;;;;;;;;;;;7.20;1.00;;;;;;5041763;28;19925;-83
2021/12/20 06:20:22;;;;;;;;;;;7.10;1.00;;;;;;5054732;28;19952;-83
2021/12/20 06:22:47;;;;;;;;;;;7.10;1.00;;;;;;5052346;28;19917;-83
2021/12/20 06:25:14;;;;;;;;;;;7.10;1.00;;;;;;5054946;28;19952;-81
2021/12/20 06:27:39;;;;;;;;;;;7.10;99.90;;;;;;5052858;28;20503;-83
2021/12/20 06:30:08;;;;;;;;;;;7.00;99.90;;;;;;5055258;28;19913;-83
2021/12/20 06:32:35;;;;;;;;;;;7.00;1.00;;;;;;5046614;28;19913;-83
2021/12/20 06:35:00;;;;;;;;;;;6.90;78.80;;;;;;5047035;28;20349;-83
2021/12/20 06:37:26;;;;;;;;;;;6.90;99.90;;;;;;5054428;28;19914;-83
2021/12/20 06:39:51;;;;;;;;;;;6.90;99.90;;;;;;5048660;28;20415;-83
2021/12/20 06:42:17;;;;;;;;;;;6.90;99.90;;;;;;5055499;28;19920;-83
2021/12/20 06:44:42;;;;;;;;;;;6.90;1.00;;;;;;5046860;28;19913;-83
2021/12/20 06:47:08;;;;;;;;;;;7.00;1.00;;;;;;5039327;28;19953;-83
2021/12/20 06:49:33;;;;;;;;;;;7.00;1.00;;;;;;5043120;28;19947;-83
2021/12/20 06:52:00;;;;;;;;;;;7.00;1.00;;;;;;5050290;28;20297;-83
2021/12/20 06:54:26;;;;;;;;;;;7.00;1.00;;;;;;5052399;28;19913;-83
2021/12/20 06:56:51;;;;;;;;;;;7.10;1.00;;;;;;5053904;28;19920;-83
2021/12/20 06:59:17;;;;;;;;;;;7.10;1.00;;;;;;5052530;28;19920;-83
2021/12/20 07:01:42;;;;;;;;;;;7.10;1.00;;;;;;5059395;28;19967;-82
2021/12/20 07:04:08;;;;;;;;;;;7.10;1.00;;;;;;5074629;28;19913;-83
2021/12/20 07:06:34;;;;;;;;;;;7.10;1.00;;;;;;5071437;28;19919;-84
2021/12/20 07:08:59;;;;;;;;;;;7.10;1.00;;;;;;5077014;28;19913;-84
2021/12/20 07:11:25;;;;;;;;;;;7.20;1.00;;;;;;5075921;28;19920;-84
2021/12/20 07:13:53;;;;;;;;;;;7.20;1.00;;;;;;5067469;28;19913;-85
2021/12/20 07:16:19;;;;;;;;;;;7.30;1.00;;;;;;5061339;28;19913;-84
2021/12/20 07:18:44;;;;;;;;;;;7.30;99.90;;;;;;5063174;28;19913;-84
2021/12/20 07:21:10;;;;;;;;;;;7.30;99.90;;;;;;5040125;28;20360;-84
2021/12/20 07:23:35;;;;;;;;;;;7.40;99.90;;;;;;5038444;28;19970;-86
2021/12/20 07:26:03;;;;;;;;;;;7.40;99.90;;;;;;5051426;28;20015;-83
2021/12/20 07:28:28;;;;;;;;;;;7.40;1.00;;;;;;5035299;28;20024;-84
2021/12/20 07:30:54;;;;;;;;;;;7.40;8.80;;;;;;5058247;28;19948;-86
2021/12/20 07:33:20;;;;;;;;;;;7.40;1.00;;;;;;5054216;28;19920;-84
2021/12/20 07:35:46;;;;;;;;;;;7.40;1.00;;;;;;5058212;28;19913;-83
2021/12/20 07:38:13;;;;;;;;;;;7.40;1.00;;;;;;5053563;28;20377;-83
2021/12/20 07:40:43;;;;;;;;;;;7.40;1.00;;;;;;5052626;28;20063;-84
2021/12/20 07:43:08;;;;;;;;;;;7.40;1.00;;;;;;5036734;28;19927;-84
2021/12/20 07:45:35;;;;;;;;;;;7.40;1.00;;;;;;5058289;28;19909;-83
2021/12/20 07:48:00;;;;;;;;;;;7.40;1.00;;;;;;5057116;28;19913;-83
2021/12/20 07:50:25;;;;;;;;;;;7.40;99.90;;;;;;5036925;28;19963;-82
2021/12/20 07:52:51;;;;;;;;;;;7.40;99.90;;;;;;5056062;28;19920;-83
2021/12/20 07:55:17;;;;;;;;;;;7.40;99.90;;;;;;5055163;28;19964;-83
2021/12/20 07:57:42;;;;;;;;;;;7.40;99.90;;;;;;5055700;28;20389;-82
2021/12/20 08:00:09;;;;;;;;;;;7.40;99.90;;;;;;5031491;28;20006;-83
2021/12/20 08:02:34;;;;;;;;;;;7.40;99.90;;;;;;5055011;28;20007;-83
2021/12/20 08:05:00;;;;;;;;;;;7.40;99.90;;;;;;5057688;28;19998;-84
2021/12/20 08:07:25;;;;;;;;;;;7.40;99.90;;;;;;5048142;28;19913;-83
2021/12/20 08:09:51;;;;;;;;;;;7.40;99.90;;;;;;5051645;28;19952;-83
2021/12/20 08:12:17;;;;;;;;;;;7.50;99.90;;;;;;5055887;28;19919;-83
2021/12/20 08:14:42;;;;;;;;;;;7.50;99.90;;;;;;5058418;28;19932;-83
2021/12/20 08:17:08;;;;;;;;;;;7.50;99.90;;;;;;5053377;28;19913;-83
2021/12/20 08:19:33;;;;;;;;;;;7.50;99.90;;;;;;5056166;28;19919;-83
2021/12/20 08:21:59;;;;;;;;;;;7.50;99.90;;;;;;5038185;28;19963;-83
2021/12/20 08:24:24;;;;;;;;;;;7.60;99.90;;;;;;5056711;28;19909;-83
2021/12/20 08:26:50;;;;;;;;;;;7.60;99.90;;;;;;5052088;28;19913;-84
2021/12/20 08:29:15;;;;;;;;;;;7.60;99.90;;;;;;5040477;28;19916;-82
2021/12/20 08:31:41;;;;;;;;;;;7.70;99.90;;;;;;5040887;28;20519;-83
2021/12/20 08:34:06;;;;;;;;;;;7.70;99.90;;;;;;5033294;28;19920;-83
2021/12/20 08:36:32;;;;;;;;;;;7.80;99.90;;;;;;5057940;28;19909;-82
2021/12/20 08:38:57;;;;;;;;;;;7.80;76.00;;;;;;5056799;28;20224;-82
2021/12/20 08:41:23;;;;;;;;;;;7.90;23.90;;;;;;5050171;28;19928;-82
2021/12/20 08:43:48;;;;;;;;;;;7.90;1.00;;;;;;5058703;28;19916;-82
2021/12/20 08:46:15;;;;;;;;;;;8.00;1.00;;;;;;5041536;28;19920;-82
2021/12/20 08:48:44;;;;;;;;;;;8.00;99.90;;;;;;5054272;28;19912;-82
2021/12/20 08:51:10;;;;;;;;;;;8.00;1.00;;;;;;5054751;28;20726;-82
2021/12/20 08:53:36;;;;;;;;;;;8.10;48.10;;;;;;5053309;28;19913;-82
2021/12/20 08:56:02;;;;;;;;;;;8.30;1.00;;;;;;5050552;28;19913;-81
2021/12/20 08:58:28;;;;;;;;;;;8.40;1.00;;;;;;5057109;28;19919;-82
2021/12/20 09:00:54;;;;;;;;;;;8.50;1.00;;;;;;5034173;28;19913;-82
2021/12/20 09:03:20;;;;;;;;;;;8.60;1.00;;;;;;5055686;28;19923;-83
2021/12/20 09:05:45;;;;;;;;;;;8.60;99.90;;;;;;5043734;28;19998;-82
2021/12/20 09:08:12;;;;;;;;;;;8.70;1.00;;;;;;5051366;28;19912;-82
2021/12/20 09:10:37;;;;;;;;;;;8.70;1.00;;;;;;5056729;28;19939;-84
2021/12/20 09:13:04;;;;;;;;;;;8.70;1.00;;;;;;5056934;28;20399;-82
2021/12/20 09:15:30;;;;;;;;;;;8.80;99.90;;;;;;5055344;28;19913;-83
2021/12/20 09:17:56;;;;;;;;;;;8.80;99.90;;;;;;5051104;28;19938;-83
2021/12/20 09:20:23;;;;;;;;;;;9.00;1.00;;;;;;5054834;28;20355;-83
2021/12/20 09:22:53;;;;;;;;;;;9.10;1.00;;;;;;5057969;28;20015;-83
2021/12/20 09:25:20;;;;;;;;;;;9.20;1.00;;;;;;5039617;28;19979;-83
2021/12/20 09:27:46;;;;;;;;;;;9.20;99.90;;;;;;5053016;28;19960;-83
2021/12/20 09:30:12;;;;;;;;;;;9.30;99.90;;;;;;5051663;28;19983;-84
2021/12/20 09:32:38;;;;;;;;;;;9.30;99.90;;;;;;5048561;28;19916;-84
2021/12/20 09:35:03;;;;;;;;;;;9.20;99.90;;;;;;5059336;28;20376;-83
2021/12/20 09:37:29;;;;;;;;;;;9.20;99.90;;;;;;5030131;28;19959;-85
2021/12/20 09:39:55;;;;;;;;;;;9.10;99.90;;;;;;5042227;28;19915;-85
2021/12/20 09:42:22;;;;;;;;;;;9.00;99.90;;;;;;5059796;28;19921;-85
2021/12/20 09:44:48;;;;;;;;;;;9.00;99.90;;;;;;5039256;28;19909;-84
2021/12/20 09:47:14;;;;;;;;;;;9.00;99.90;;;;;;5037868;28;20011;-84
2021/12/20 09:49:39;;;;;;;;;;;9.00;99.90;;;;;;5054318;28;19917;-83
2021/12/20 09:52:05;;;;;;;;;;;9.00;99.90;;;;;;5045081;28;19913;-84
2021/12/20 09:54:30;;;;;;;;;;;8.90;99.60;;;;;;5055536;28;19996;-84
2021/12/20 09:56:58;;;;;;;;;;;8.80;99.60;;;;;;5037576;28;20323;-84
2021/12/20 09:59:26;;;;;;;;;;;8.90;99.90;;;;;;5034651;28;19913;-84
2021/12/20 10:01:53;;;;;;;;;;;9.00;99.90;;;;;;5055769;28;19917;-84
2021/12/20 10:04:20;;;;;;;;;;;9.10;99.90;;;;;;5057387;28;19913;-84
2021/12/20 10:06:49;;;;;;;;;;;9.10;81.40;;;;;;5036885;28;19916;-83
2021/12/20 10:09:16;;;;;;;;;;;9.10;41.20;;;;;;5051266;28;19912;-84
2021/12/20 10:11:43;;;;;;;;;;;9.10;40.80;;;;;;5056787;28;19909;-84
2021/12/20 10:14:13;;;;;;;;;;;9.20;19.00;;;;;;5045348;28;19913;-84
2021/12/20 10:16:40;;;;;;;;;;;9.10;1.00;;;;;;5042504;28;19908;-84
2021/12/20 10:19:09;;;;;;;;;;;9.10;1.00;;;;;;5056633;28;19913;-84
2021/12/20 10:21:38;;;;;;;;;;;9.00;1.00;;;;;;5037532;28;19917;-84
2021/12/20 10:24:04;;;;;;;;;;;9.10;1.00;;;;;;5046542;28;19909;-84
2021/12/20 10:26:37;;;;;;;;;;;9.10;1.00;;;;;;5032561;28;20039;-85
2021/12/20 10:29:15;;;;;;;;;;;8.90;1.00;;;;;;5048769;28;19909;-83
2021/12/20 10:31:40;;;;;;;;;;;8.90;1.00;;;;;;5045431;28;19917;-84
2021/12/20 10:34:06;;;;;;;;;;;8.80;1.00;;;;;;5057433;28;19909;-84
2021/12/20 10:36:32;;;;;;;;;;;8.80;1.00;;;;;;5058687;28;19916;-83
2021/12/20 10:38:59;;;;;;;;;;;8.70;1.00;;;;;;5042613;28;19905;-84
2021/12/20 10:41:33;;;;;;;;;;;8.80;1.00;;;;;;5047199;28;19924;-84
2021/12/20 10:44:02;;;;;;;;;;;8.80;1.00;;;;;;5037956;28;19908;-84
2021/12/20 10:46:29;;;;;;;;;;;8.70;1.00;;;;;;5048973;28;20364;-84
2021/12/20 10:48:58;;;;;;;;;;;8.70;1.00;;;;;;5043089;28;19909;-84
2021/12/20 10:51:26;;;;;;;;;;;8.70;1.00;;;;;;5056492;28;19976;-85
2021/12/20 10:53:58;;;;;;;;;;;8.60;1.00;;;;;;5059261;28;19913;-84
2021/12/20 10:56:24;;;;;;;;;;;8.60;1.00;;;;;;5052567;28;19996;-84
2021/12/20 10:58:49;;;;;;;;;;;8.70;1.00;;;;;;5041814;28;19947;-84
2021/12/20 11:01:22;;;;;;;;;;;8.70;1.00;;;;;;5046262;28;19922;-84
2021/12/20 11:03:58;;;;;;;;;;;8.70;1.00;;;;;;5041104;28;19967;-84
2021/12/20 11:06:26;;;;;;;;;;;8.80;1.00;;;;;;5048934;28;19913;-84
2021/12/20 11:09:04;;;;;;;;;;;8.80;1.00;;;;;;5058511;28;19925;-84
2021/12/20 11:11:30;;;;;;;;;;;8.70;1.00;;;;;;5058558;28;19913;-84
2021/12/20 11:13:57;;;;;;;;;;;8.70;1.00;;;;;;5061332;28;19909;-84
2021/12/20 11:16:27;;;;;;;;;;;8.80;1.00;;;;;;5060019;28;20281;-84
2021/12/20 11:19:16;;;;;;;;;;;8.80;1.00;;;;;;5049422;28;19917;-83
2021/12/20 11:22:03;;;;;;;;;;;8.80;1.00;;;;;;5048119;28;19917;-84
2021/12/20 11:24:37;;;;;;;;;;;9.00;1.00;;;;;;5060213;28;19913;-85
2021/12/20 11:27:04;;;;;;;;;;;9.10;1.00;;;;;;5059860;28;20016;-85
2021/12/20 11:29:31;;;;;;;;;;;9.40;99.90;;;;;;5052405;28;19913;-84
2021/12/20 11:31:56;;;;;;;;;;;10.20;99.90;;;;;;5055634;28;19913;-85
2021/12/20 11:34:22;;;;;;;;;;;11.20;1.00;;;;;;5054531;28;19928;-85
2021/12/20 11:36:48;;;;;;;;;;;12.40;1.00;;;;;;5051923;28;19913;-85
2021/12/20 11:39:14;;;;;;;;;;;13.30;1.00;;;;;;5049377;28;19913;-84
2021/12/20 11:41:39;;;;;;;;;;;14.00;1.00;;;;;;5055885;28;19953;-84
2021/12/20 11:44:06;;;;;;;;;;;14.50;1.00;;;;;;5047149;28;19999;-84
2021/12/20 11:46:40;;;;;;;;;;;15.00;1.00;;;;;;5064112;28;19913;-84
2021/12/20 11:49:05;;;;;;;;;;;15.30;1.00;;;;;;5050689;28;19920;-85
2021/12/20 11:51:51;;;;;;;;;;;15.70;1.00;;;;;;5057680;28;19917;-85
2021/12/20 11:54:32;;;;;;;;;;;15.90;1.00;;;;;;5045444;28;19924;-85
2021/12/20 11:56:57;;;;;;;;;;;16.20;1.00;;;;;;5063369;28;20284;-84
2021/12/20 11:59:42;;;;;;;;;;;16.40;1.00;;;;;;5057939;28;19975;-84
2021/12/20 12:02:25;;;;;;;;;;;16.40;1.00;;;;;;5039042;28;20058;-84
2021/12/20 12:04:56;;;;;;;;;;;16.50;1.00;;;;;;5061747;28;20322;-84
2021/12/20 12:07:23;;;;;;;;;;;16.50;1.00;;;;;;5043289;28;19962;-85
2021/12/20 12:10:09;;;;;;;;;;;16.70;1.00;;;;;;5028355;28;19913;-84
2021/12/20 12:12:39;;;;;;;;;;;17.10;1.00;;;;;;5058036;28;19915;-84
2021/12/20 12:15:08;;;;;;;;;;;17.30;1.00;;;;;;5059598;28;19913;-84
2021/12/20 12:17:50;;;;;;;;;;;17.20;1.00;;;;;;5039922;28;19951;-83
2021/12/20 12:20:34;;;;;;;;;;;15.90;1.00;;;;;;5022213;28;19949;-83
2021/12/20 12:23:10;;;;;;;;;;;14.70;1.00;;;;;;5057238;28;19917;-83
2021/12/20 12:25:44;;;;;;;;;;;14.30;1.00;;;;;;5028369;28;19910;-84
2021/12/20 12:28:10;;;;;;;;;;;14.60;1.00;;;;;;5047197;28;20514;-84
2021/12/20 12:30:36;;;;;;;;;;;15.10;1.00;;;;;;5037700;28;20258;-85
2021/12/20 12:33:02;;;;;;;;;;;15.30;1.00;;;;;;5037566;28;19916;-85
2021/12/20 12:35:37;;;;;;;;;;;15.50;1.00;;;;;;5043683;28;19913;-86
2021/12/20 12:38:14;;;;;;;;;;;15.70;1.00;;;;;;5028146;28;19913;-84
2021/12/20 12:40:40;;;;;;;;;;;14.90;1.00;;;;;;5061348;28;19934;-85
2021/12/20 12:43:06;;;;;;;;;;;14.00;1.00;;;;;;5053822;28;19916;-85
2021/12/20 12:45:49;;;;;;;;;;;13.40;1.00;;;;;;5062692;28;19978;-85
2021/12/20 12:48:34;;;;;;;;;;;13.60;1.00;;;;;;5061254;28;19974;-84
2021/12/20 12:51:06;;;;;;;;;;;14.20;1.00;;;;;;5064147;28;19909;-85
2021/12/20 12:53:39;;;;;;;;;;;14.70;1.00;;;;;;5067288;28;19913;-84
2021/12/20 12:56:23;;;;;;;;;;;15.20;1.00;;;;;;5080525;28;19938;-84
2021/12/20 12:59:07;;;;;;;;;;;15.40;1.00;;;;;;5068585;28;19913;-84
2021/12/20 13:01:32;;;;;;;;;;;15.70;1.00;;;;;;5057628;28;20384;-84
2021/12/20 13:03:58;;;;;;;;;;;15.70;1.00;;;;;;5061646;28;20003;-85
2021/12/20 13:06:25;;;;;;;;;;;15.70;1.00;;;;;;5042445;28;19916;-84
2021/12/20 13:08:53;;;;;;;;;;;16.00;1.00;;;;;;5054129;28;19936;-85
2021/12/20 13:11:20;;;;;;;;;;;16.10;1.00;;;;;;5056479;28;20425;-84
2021/12/20 13:13:53;;;;;;;;;;;16.40;1.00;;;;;;5060348;28;19909;-84
2021/12/20 13:16:24;;;;;;;;;;;16.40;1.00;;;;;;5048943;28;19919;-85
2021/12/20 13:18:52;;;;;;;;;;;16.30;1.00;;;;;;5060657;28;20377;-84
2021/12/20 13:21:21;;;;;;;;;;;16.20;1.00;;;;;;5042560;28;19913;-84
2021/12/20 13:23:48;;;;;;;;;;;15.80;1.00;;;;;;5060429;28;19937;-84
2021/12/20 13:26:20;;;;;;;;;;;15.70;99.90;;;;;;5058573;28;19923;-84
2021/12/20 13:28:50;;;;;;;;;;;15.60;99.90;;;;;;5054840;28;20389;-84
2021/12/20 13:31:16;;;;;;;;;;;15.50;99.90;;;;;;5041957;28;19913;-85
2021/12/20 13:33:42;;;;;;;;;;;15.70;99.90;;;;;;5054745;28;20349;-83
2021/12/20 13:36:12;;;;;;;;;;;15.70;99.90;;;;;;5055920;28;19952;-83
2021/12/20 13:38:39;;;;;;;;;;;15.70;99.90;;;;;;5053417;28;19925;-84
2021/12/20 13:41:08;;;;;;;;;;;15.40;99.90;;;;;;5039164;28;19973;-84
2021/12/20 13:43:37;;;;;;;;;;;15.40;99.90;;;;;;5038741;28;19913;-83
2021/12/20 13:46:05;;;;;;;;;;;15.20;99.90;;;;;;5039400;28;20003;-84
2021/12/20 13:48:31;;;;;;;;;;;15.10;99.90;;;;;;5031547;28;19998;-84
2021/12/20 13:50:57;;;;;;;;;;;15.10;99.90;;;;;;5056275;28;19909;-84
2021/12/20 13:53:32;;;;;;;;;;;14.90;99.90;;;;;;5050128;28;20335;-84
2021/12/20 13:55:58;;;;;;;;;;;14.90;99.90;;;;;;5055574;28;19913;-84
2021/12/20 13:58:25;;;;;;;;;;;14.50;99.90;;;;;;5056000;28;19913;-84
2021/12/20 14:00:50;;;;;;;;;;;14.20;99.90;;;;;;5050377;28;19913;-82
2021/12/20 14:03:16;;;;;;;;;;;14.10;99.90;;;;;;5036511;28;19943;-84
2021/12/20 14:05:42;;;;;;;;;;;13.90;99.90;;;;;;5054143;28;20454;-85
2021/12/20 14:08:14;;;;;;;;;;;13.70;99.90;;;;;;5051726;28;19913;-84
2021/12/20 14:10:40;;;;;;;;;;;13.70;99.90;;;;;;5032676;28;19936;-84
2021/12/20 14:13:07;;;;;;;;;;;13.70;99.90;;;;;;5058116;28;19913;-85
2021/12/20 14:15:36;;;;;;;;;;;13.50;99.90;;;;;;5057843;28;19913;-84
2021/12/20 14:18:03;;;;;;;;;;;13.30;99.90;;;;;;5056844;28;19924;-84
2021/12/20 14:20:38;;;;;;;;;;;13.10;99.90;;;;;;5059231;28;19909;-84
2021/12/20 14:23:06;;;;;;;;;;;13.10;99.90;;;;;;5046628;28;20403;-84
2021/12/20 14:25:38;;;;;;;;;;;13.10;99.90;;;;;;5049774;28;19925;-84
2021/12/20 14:28:11;;;;;;;;;;;13.00;99.90;;;;;;5061044;28;19913;-84
2021/12/20 14:30:43;;;;;;;;;;;12.70;99.90;;;;;;5060839;28;19995;-84
2021/12/20 14:33:17;;;;;;;;;;;12.60;99.90;;;;;;5062214;28;20019;-84
2021/12/20 14:35:49;;;;;;;;;;;12.40;99.90;;;;;;5042489;28;20054;-84
2021/12/20 14:38:33;;;;;;;;;;;12.20;99.90;;;;;;5062441;28;19913;-84
2021/12/20 14:40:59;;;;;;;;;;;12.00;99.90;;;;;;5052627;28;19913;-83
2021/12/20 14:43:32;;;;;;;;;;;11.80;99.90;;;;;;5060097;28;19916;-84
2021/12/20 14:46:09;;;;;;;;;;;11.60;99.90;;;;;;5035488;28;19913;-84
2021/12/20 14:48:42;;;;;;;;;;;11.40;99.90;;;;;;5051057;28;19971;-84
2021/12/20 14:51:14;;;;;;;;;;;11.20;99.90;;;;;;5050231;28;19921;-83
2021/12/20 14:53:40;;;;;;;;;;;10.90;99.90;;;;;;5040962;28;19963;-84
2021/12/20 14:56:07;;;;;;;;;;;10.70;99.90;;;;;;5024266;28;19910;-83